Onward, Indiana
Current Conditions -  °F | °C
As of 4:58 PM on Monday 20 Oct 2014 (Local Time) from KGUS Reporting Station
Few Clouds Few Clouds  
Wind Chill: 65°   Ceiling: Unl
Heat Index: 65°   Visibility: 10mi
Dew Point: 51°   Wind: 14mph
Humidity: 60%   Direction: 300°WNW
Pressure: 29.82"   Gusts: NA
Location:  40.69°N, 86.19°W
Report Text: KGUS 202058Z AUTO 30012KT 10SM FEW046 18/10 A2982 RMK AO2 SLP101 T01820104 53000
Loading
Personal Weather Stations






























Interactive Weather Map
Tropical Storm Tracking
New forecast layout! Learn more

10-Day Weather Forecast

Advertisements
Track Severe Weather on mobile